Accueil
METAR-TAF:

METAR-TAF

Aéroports :

Aéroport d'Oxford Kidlington

Oxford, Angleterre

latitude: 51-50-13N, longitude: 1-19-12W, altitude: 82 m

Observation

Le bulletin a été fait il y a 28 minutes, à 21:50 UTC
Vent 9 kt de est/nord-est
Température 5°C
Humidité 93%
Pression 1027 hPa
Visibilité 10 km ou plus
pas de nuages en-dessous de 1500 mètres et pas de cumulonimbus.

METAR: EGTK 172150Z 07009KT CAVOK 05/04 Q1027

Heure: 22:18 (22:18 UTC)

Prévision

Le bulletin a été fait il y a 2 heures et 21 minutes, à 19:57 UTC
Prévision valable du 17 à 21 UTC au 17 à 23 UTC
Vent 9 kt de est
Visibilité 10 km ou plus
pas de nuages en-dessous de 1500 mètres et pas de cumulonimbus.
Probabilité 40%
du 17 à 21 UTC au 17 à 23 UTC
Visibilité: 5000 m
brume sèche

TAF: EGTK 171957Z 1721/1723 08009KT CAVOK PROB40 1721/1723 5000 HZ

Observations et prévisions météorologiques de plus de 4000 aéroports (messages METAR et TAF).

Les stations disponibles sont représentées par des disques jaunes et rouges sur la carte.

Passer la souris dessus pour voir le nom de la station.

Cliquer dessus pour voir les observations et prévisions météorologiques.

Pour changer de carte: cliquez sur les boutons verts avec une croix noire pour zoomer, sur le bouton vert avec un tiret pour effectuer un zoom arrière, ou sur les flèches vertes pour les cartes adjacentes.


METAR-TAF: